Time;durP1;ratioP1;P1;durP2;ratioP2;P2;SDS_P1;SDS_P2;PMS_P1;PMS_P2;Temp;Humidity;BMP_temperature;BMP_pressure;BME280_temperature;BME280_humidity;BME280_pressure;Samples;Min_cycle;Max_cycle;Signal;HPM_P1;HPM_P2
2023/12/23 00:01:34;;;;;;;;;1.00;1.00;;;;;21.62;46.94;97731.28;111461;1252;18127;-30
2023/12/23 00:04:02;;;;;;;;;2.00;2.00;;;;;21.60;46.92;97739.10;111613;1260;18593;-31
2023/12/23 00:06:29;;;;;;;;;1.00;1.00;;;;;21.59;46.48;97744.98;111430;1263;18194;-31
2023/12/23 00:08:56;;;;;;;;;2.00;2.00;;;;;21.59;46.89;97757.38;111561;1268;20405;-31
2023/12/23 00:11:24;;;;;;;;;1.50;1.50;;;;;21.59;46.51;97755.35;111454;1267;18580;-31
2023/12/23 00:13:51;;;;;;;;;1.00;1.00;;;;;21.59;46.60;97770.59;111650;1252;18543;-31
2023/12/23 00:16:18;;;;;;;;;1.00;1.00;;;;;21.55;46.66;97764.59;111485;1252;19230;-31
2023/12/23 00:18:46;;;;;;;;;1.00;1.00;;;;;21.56;46.58;97770.67;111656;1252;20054;-31
2023/12/23 00:21:13;;;;;;;;;2.00;1.00;;;;;21.55;46.88;97779.82;111557;1252;19820;-31
2023/12/23 00:23:40;;;;;;;;;1.00;1.00;;;;;21.56;46.51;97787.40;111732;1254;20842;-31
2023/12/23 00:26:08;;;;;;;;;3.00;1.50;;;;;21.57;46.67;97782.83;111616;1253;20004;-31
2023/12/23 00:28:35;;;;;;;;;1.00;1.00;;;;;21.56;46.37;97793.00;111444;1267;18160;-31
2023/12/23 00:31:02;;;;;;;;;1.00;1.00;;;;;21.55;46.72;97795.38;111624;1268;17899;-31
2023/12/23 00:33:30;;;;;;;;;1.50;1.50;;;;;21.55;46.53;97795.13;111475;1267;20096;-31
2023/12/23 00:35:57;;;;;;;;;1.00;1.00;;;;;21.55;46.42;97797.72;111695;1252;19612;-31
2023/12/23 00:38:24;;;;;;;;;1.00;1.00;;;;;21.54;46.38;97801.17;111464;1253;19361;-30
2023/12/23 00:40:51;;;;;;;;;1.00;1.00;;;;;21.54;46.57;97807.79;111629;1253;21081;-31
2023/12/23 00:43:19;;;;;;;;;1.00;1.00;;;;;21.51;46.59;97810.13;111492;1267;18177;-31
2023/12/23 00:45:46;;;;;;;;;1.00;1.00;;;;;21.52;46.46;97811.33;111608;1263;19233;-31
2023/12/23 00:48:13;;;;;;;;;1.00;1.00;;;;;21.53;46.30;97814.94;111550;1267;21526;-31
2023/12/23 00:50:41;;;;;;;;;1.00;1.00;;;;;21.52;46.47;97806.90;111456;1252;19606;-31
2023/12/23 00:53:08;;;;;;;;;2.00;1.00;;;;;21.52;46.43;97805.50;111561;1267;17889;-30
2023/12/23 00:55:35;;;;;;;;;1.00;1.00;;;;;21.52;46.28;97816.39;111522;1267;19944;-32
2023/12/23 00:58:03;;;;;;;;;1.00;1.00;;;;;21.53;46.23;97820.31;111615;1253;19633;-31
2023/12/23 01:00:30;;;;;;;;;1.00;1.00;;;;;21.53;46.30;97825.90;111488;1267;17894;-31
2023/12/23 01:02:57;;;;;;;;;1.00;1.00;;;;;21.52;46.30;97834.83;111710;1252;18635;-31
2023/12/23 01:05:25;;;;;;;;;1.00;1.00;;;;;21.51;46.44;97839.39;111458;1254;19635;-31
2023/12/23 01:07:52;;;;;;;;;1.00;1.00;;;;;21.52;46.20;97844.79;111463;1268;17862;-31
2023/12/23 01:10:22;;;;;;;;;1.00;1.00;;;;;21.51;46.15;97840.70;111461;1252;20068;-31
2023/12/23 01:12:49;;;;;;;;;1.00;1.00;;;;;21.51;46.16;97846.15;111166;1252;425152;-31
2023/12/23 01:15:16;;;;;;;;;1.00;1.00;;;;;21.51;46.05;97837.81;111493;1252;18012;-31
2023/12/23 01:17:44;;;;;;;;;1.00;1.00;;;;;21.50;45.99;97839.05;111549;1267;18592;-30
2023/12/23 01:20:12;;;;;;;;;1.00;1.00;;;;;21.51;46.04;97845.22;111484;1252;20689;-30
2023/12/23 01:22:39;;;;;;;;;2.00;1.00;;;;;21.51;46.25;97840.86;111473;1268;18512;-31
2023/12/23 01:25:06;;;;;;;;;1.00;1.00;;;;;21.49;46.11;97839.02;111518;1252;20031;-30
2023/12/23 01:27:34;;;;;;;;;1.50;1.50;;;;;21.52;46.34;97846.96;111534;1252;19647;-31
2023/12/23 01:30:01;;;;;;;;;1.00;1.00;;;;;21.51;46.00;97846.63;111597;1252;18974;-31
2023/12/23 01:32:28;;;;;;;;;1.00;1.00;;;;;21.50;46.28;97858.50;111537;1260;20787;-30
2023/12/23 01:34:56;;;;;;;;;1.00;1.00;;;;;21.51;45.98;97848.80;111473;1253;19687;-31
2023/12/23 01:37:23;;;;;;;;;1.00;1.00;;;;;21.51;46.09;97857.98;111443;1253;20427;-31
2023/12/23 01:39:50;;;;;;;;;1.00;1.00;;;;;21.49;46.24;97860.95;111483;1267;18686;-31
2023/12/23 01:42:18;;;;;;;;;1.00;1.00;;;;;21.49;45.96;97865.40;111502;1253;19542;-31
2023/12/23 01:44:45;;;;;;;;;2.00;1.00;;;;;21.49;45.85;97874.27;111569;1253;19286;-31
2023/12/23 01:47:12;;;;;;;;;1.00;1.00;;;;;21.49;45.87;97873.64;111616;1253;20023;-31
2023/12/23 01:49:40;;;;;;;;;1.00;1.00;;;;;21.49;45.81;97876.06;111489;1267;19553;-31
2023/12/23 01:52:07;;;;;;;;;1.00;1.00;;;;;21.49;45.66;97874.89;111647;1267;17907;-28
2023/12/23 01:54:34;;;;;;;;;1.00;1.00;;;;;21.48;45.89;97877.89;111459;1252;18599;-28
2023/12/23 01:57:01;;;;;;;;;1.00;1.00;;;;;21.47;45.93;97885.65;111557;1253;19638;-30
2023/12/23 01:59:29;;;;;;;;;1.00;1.00;;;;;21.48;45.78;97888.78;111480;1252;19343;-29
2023/12/23 02:01:56;;;;;;;;;1.00;1.00;;;;;21.47;46.00;97894.11;111494;1252;20187;-29
2023/12/23 02:04:23;;;;;;;;;1.00;1.00;;;;;21.47;45.98;97903.84;111556;1267;19584;-29
2023/12/23 02:06:51;;;;;;;;;1.00;1.00;;;;;21.48;45.86;97908.55;111572;1252;19310;-29
2023/12/23 02:09:18;;;;;;;;;1.00;1.00;;;;;21.47;45.74;97914.11;111624;1252;20032;-29
2023/12/23 02:11:45;;;;;;;;;1.00;1.00;;;;;21.48;45.65;97918.41;111646;1260;19544;-29
2023/12/23 02:14:12;;;;;;;;;1.00;1.00;;;;;21.45;45.72;97915.07;111811;1252;19195;-29
2023/12/23 02:16:40;;;;;;;;;1.00;1.00;;;;;21.44;45.99;97919.95;111657;1268;18523;-29
2023/12/23 02:19:07;;;;;;;;;1.00;1.00;;;;;21.43;45.75;97922.65;111666;1268;20546;-29
2023/12/23 02:21:34;;;;;;;;;1.00;1.00;;;;;21.42;45.97;97924.08;111481;1252;19199;-29
2023/12/23 02:24:02;;;;;;;;;1.00;1.00;;;;;21.43;45.90;97927.14;111484;1260;19897;-29
2023/12/23 02:26:29;;;;;;;;;1.00;1.00;;;;;21.43;45.57;97935.92;111474;1253;19605;-30
2023/12/23 02:28:56;;;;;;;;;1.00;1.00;;;;;21.41;46.01;97941.10;111476;1260;19331;-29
2023/12/23 02:31:24;;;;;;;;;1.00;1.00;;;;;21.40;45.79;97939.52;111509;1260;20094;-30
2023/12/23 02:33:51;;;;;;;;;1.00;1.00;;;;;21.42;45.72;97942.66;111485;1252;19448;-30
2023/12/23 02:36:18;;;;;;;;;;;;;;;21.41;45.68;97945.92;111571;1267;17926;-30
2023/12/23 02:38:45;;;;;;;;;2.00;1.00;;;;;21.42;45.78;97949.74;111508;1267;18619;-30
2023/12/23 02:41:13;;;;;;;;;1.00;1.00;;;;;21.41;45.69;97950.66;111594;1252;19288;-30
2023/12/23 02:43:40;;;;;;;;;1.00;1.00;;;;;21.40;45.73;97952.03;111614;1268;17852;-30
2023/12/23 02:46:07;;;;;;;;;1.00;1.00;;;;;21.40;45.76;97950.94;111455;1267;18937;-29
2023/12/23 02:48:35;;;;;;;;;2.00;1.00;;;;;21.39;45.51;97957.82;111607;1252;18136;-30
2023/12/23 02:51:02;;;;;;;;;1.00;1.00;;;;;21.38;45.76;97957.48;111487;1252;17950;-29
2023/12/23 02:53:29;;;;;;;;;1.00;1.00;;;;;21.38;45.85;97961.14;111460;1268;18609;-30
2023/12/23 02:55:57;;;;;;;;;1.00;1.00;;;;;21.39;45.52;97968.88;111430;1253;19643;-29
2023/12/23 02:58:24;;;;;;;;;2.00;1.00;;;;;21.38;45.68;97975.93;111476;1253;19314;-29
2023/12/23 03:00:51;;;;;;;;;1.00;1.00;;;;;21.39;45.88;97984.35;111519;1252;18559;-30
2023/12/23 03:03:19;;;;;;;;;1.00;1.00;;;;;21.39;45.56;97992.90;111532;1252;19661;-30
2023/12/23 03:05:46;;;;;;;;;1.00;1.00;;;;;21.38;45.76;97995.77;111534;1268;17906;-30
2023/12/23 03:08:13;;;;;;;;;1.00;1.00;;;;;21.37;45.74;97996.90;111561;1254;19878;-29
2023/12/23 03:10:41;;;;;;;;;1.00;1.00;;;;;21.37;45.51;98005.61;111563;1267;18223;-30
2023/12/23 03:13:08;;;;;;;;;1.00;1.00;;;;;21.38;45.64;98006.89;111486;1254;19302;-30
2023/12/23 03:15:35;;;;;;;;;1.00;1.00;;;;;21.37;45.56;98002.02;111636;1253;20171;-30
2023/12/23 03:18:02;;;;;;;;;1.00;1.00;;;;;21.38;45.35;98002.30;111478;1268;18234;-30
2023/12/23 03:20:30;;;;;;;;;1.00;1.00;;;;;21.38;45.54;98007.30;111749;1253;17869;-30
2023/12/23 03:22:58;;;;;;;;;1.00;1.00;;;;;21.37;45.47;98009.91;111451;1253;21173;-30
2023/12/23 03:25:25;;;;;;;;;1.00;1.00;;;;;21.37;45.53;98013.77;111665;1253;19594;-30
2023/12/23 03:27:52;;;;;;;;;1.00;1.00;;;;;21.37;45.44;98017.14;111532;1263;20442;-30
2023/12/23 03:30:20;;;;;;;;;1.00;1.00;;;;;21.37;45.65;98018.91;111676;1253;20019;-29
2023/12/23 03:32:47;;;;;;;;;1.00;1.00;;;;;21.35;45.22;98019.57;111580;1252;18171;-30
2023/12/23 03:35:14;;;;;;;;;1.00;1.00;;;;;21.35;45.40;98024.79;111470;1253;19259;-30
2023/12/23 03:37:42;;;;;;;;;1.00;1.00;;;;;21.36;45.50;98025.42;111584;1260;19899;-30
2023/12/23 03:40:09;;;;;;;;;1.00;1.00;;;;;21.37;45.60;98025.52;111425;1252;19701;-30
2023/12/23 03:42:38;;;;;;;;;1.00;1.00;;;;;21.36;45.53;98030.96;111602;1267;19391;-30
2023/12/23 03:45:05;;;;;;;;;1.00;1.00;;;;;21.35;45.63;98033.34;111677;1267;18608;-30
2023/12/23 03:47:33;;;;;;;;;1.00;1.00;;;;;21.34;45.68;98039.14;111525;1253;19604;-29
2023/12/23 03:50:00;;;;;;;;;1.00;1.00;;;;;21.36;45.39;98040.73;111723;1260;20432;-30
2023/12/23 03:52:27;;;;;;;;;1.00;1.00;;;;;21.35;45.51;98050.84;111581;1260;20017;-29
2023/12/23 03:54:55;;;;;;;;;1.00;1.00;;;;;21.34;45.50;98058.98;111502;1252;19526;-30
2023/12/23 03:57:22;;;;;;;;;1.00;1.00;;;;;21.36;45.49;98061.91;111654;1252;19242;-30
2023/12/23 03:59:49;;;;;;;;;1.00;1.00;;;;;21.36;45.36;98062.23;111446;1254;20026;-30
2023/12/23 04:02:16;;;;;;;;;1.00;1.00;;;;;21.34;45.43;98067.85;111572;1267;19502;-31
2023/12/23 04:04:44;;;;;;;;;1.00;1.00;;;;;21.34;45.60;98069.08;111440;1252;19308;-30
2023/12/23 04:07:12;;;;;;;;;1.00;1.00;;;;;21.33;45.30;98076.61;111620;1267;18579;-30
2023/12/23 04:09:39;;;;;;;;;1.00;1.00;;;;;21.33;45.35;98077.76;111438;1268;18194;-30
2023/12/23 04:12:06;;;;;;;;;;;;;;;21.32;45.18;98078.05;111616;1267;19222;-30
2023/12/23 04:14:35;;;;;;;;;1.00;1.00;;;;;21.33;45.10;98081.27;111479;1267;18588;-30
2023/12/23 04:17:02;;;;;;;;;1.00;1.00;;;;;21.32;45.22;98081.33;111677;1252;17748;-30
2023/12/23 04:19:30;;;;;;;;;1.00;1.00;;;;;21.32;45.29;98079.69;111499;1267;17900;-30
2023/12/23 04:21:58;;;;;;;;;1.00;1.00;;;;;21.33;45.30;98085.96;111679;1260;18471;-30
2023/12/23 04:24:26;;;;;;;;;1.00;1.00;;;;;21.33;45.32;98085.70;111482;1267;18574;-30
2023/12/23 04:26:53;;;;;;;;;1.00;1.00;;;;;21.33;45.07;98088.73;111529;1267;17916;-37
2023/12/23 04:29:21;;;;;;;;;1.00;1.00;;;;;21.31;45.16;98090.47;111478;1253;20163;-30
2023/12/23 04:31:48;;;;;;;;;1.00;1.00;;;;;21.31;44.98;98088.08;111633;1253;19741;-29
2023/12/23 04:34:15;;;;;;;;;1.00;1.00;;;;;21.32;45.05;98093.09;111618;1260;19397;-30
2023/12/23 04:36:43;;;;;;;;;1.00;1.00;;;;;21.32;45.00;98092.13;111724;1268;19920;-29
2023/12/23 04:39:10;;;;;;;;;1.00;1.00;;;;;21.31;45.12;98096.14;111733;1252;20321;-29
2023/12/23 04:41:37;;;;;;;;;1.00;1.00;;;;;21.32;45.17;98105.74;111696;1260;19609;-30
2023/12/23 04:44:05;;;;;;;;;1.00;1.00;;;;;21.32;45.10;98109.55;111544;1260;20090;-29
2023/12/23 04:46:32;;;;;;;;;1.00;1.00;;;;;21.32;45.09;98104.48;111691;1253;19589;-30
2023/12/23 04:48:59;;;;;;;;;1.00;1.00;;;;;21.31;45.09;98112.41;111470;1267;19425;-30
2023/12/23 04:51:27;;;;;;;;;1.00;1.00;;;;;21.30;45.27;98115.70;111476;1268;19942;-30
2023/12/23 04:53:54;;;;;;;;;1.00;1.00;;;;;21.29;45.32;98123.70;111494;1252;18190;-30
2023/12/23 04:56:22;;;;;;;;;1.00;1.00;;;;;21.29;44.89;98126.24;111522;1267;18170;-30
2023/12/23 04:58:49;;;;;;;;;1.00;1.00;;;;;21.28;45.07;98132.52;111452;1264;20137;-29
2023/12/23 05:01:17;;;;;;;;;1.00;1.00;;;;;21.28;45.02;98137.20;111488;1252;21136;-30
2023/12/23 05:03:44;;;;;;;;;1.00;1.00;;;;;21.28;45.12;98144.10;111486;1253;19377;-29
2023/12/23 05:06:11;;;;;;;;;1.00;1.00;;;;;21.28;44.95;98147.69;111513;1253;19963;-30
2023/12/23 05:08:39;;;;;;;;;1.00;1.00;;;;;21.28;44.94;98152.98;111543;1267;19512;-30
2023/12/23 05:11:06;;;;;;;;;1.00;1.00;;;;;21.28;44.94;98158.20;111570;1252;18132;-29
2023/12/23 05:13:34;;;;;;;;;1.00;1.00;;;;;21.27;44.90;98154.27;111545;1252;20025;-30
2023/12/23 05:16:01;;;;;;;;;1.00;1.00;;;;;21.27;44.71;98160.89;111620;1253;19923;-30
2023/12/23 05:18:28;;;;;;;;;1.00;1.00;;;;;21.27;44.93;98167.17;111497;1267;17916;-30
2023/12/23 05:20:56;;;;;;;;;1.00;1.00;;;;;21.28;44.76;98171.88;111649;1252;20048;-30
2023/12/23 05:23:23;;;;;;;;;1.00;1.00;;;;;21.28;44.93;98174.82;111495;1268;19536;-31
2023/12/23 05:25:53;;;;;;;;;1.00;1.00;;;;;21.28;44.85;98168.63;111523;1252;17895;-30
2023/12/23 05:28:20;;;;;;;;;1.00;1.00;;;;;21.27;44.78;98179.55;111423;1267;20585;-30
2023/12/23 05:30:47;;;;;;;;;1.00;1.00;;;;;21.27;44.49;98178.48;111604;1253;19653;-30
2023/12/23 05:33:17;;;;;;;;;2.00;2.00;;;;;21.28;44.39;98177.95;111507;1267;18207;-31
2023/12/23 05:35:44;;;;;;;;;1.00;1.00;;;;;21.28;44.59;98179.13;111475;1267;18517;-31
2023/12/23 05:38:12;;;;;;;;;1.00;1.00;;;;;21.29;44.55;98183.16;111633;1267;18476;-30
2023/12/23 05:40:39;;;;;;;;;1.00;1.00;;;;;21.28;44.51;98194.45;111509;1267;19170;-30
2023/12/23 05:43:06;;;;;;;;;1.00;1.00;;;;;21.27;44.52;98192.64;111607;1268;20070;-30
2023/12/23 05:45:34;;;;;;;;;1.00;1.00;;;;;21.28;44.44;98204.79;111525;1267;19537;-30
2023/12/23 05:48:01;;;;;;;;;1.00;1.00;;;;;21.28;44.54;98211.02;111684;1259;19133;-30
2023/12/23 05:50:28;;;;;;;;;2.00;2.00;;;;;21.27;44.60;98217.90;111562;1267;18892;-30
2023/12/23 05:52:56;;;;;;;;;1.00;1.00;;;;;21.27;44.23;98220.92;111563;1252;18240;-30
2023/12/23 05:55:23;;;;;;;;;1.00;1.00;;;;;21.26;44.49;98229.06;111601;1260;19509;-30
2023/12/23 05:57:50;;;;;;;;;1.00;1.00;;;;;21.25;44.43;98228.80;111455;1252;21928;-30
2023/12/23 06:00:19;;;;;;;;;1.00;1.00;;;;;21.25;44.55;98234.33;111605;1253;19896;-31
2023/12/23 06:02:46;;;;;;;;;1.00;1.00;;;;;21.25;44.59;98232.70;111584;1267;19920;-30
2023/12/23 06:05:14;;;;;;;;;1.00;1.00;;;;;21.25;44.32;98236.34;111534;1260;19385;-30
2023/12/23 06:07:41;;;;;;;;;1.00;1.00;;;;;21.25;44.53;98242.40;111598;1252;19681;-30
2023/12/23 06:10:09;;;;;;;;;1.00;1.00;;;;;21.25;44.24;98246.98;111532;1267;20500;-31
2023/12/23 06:12:36;;;;;;;;;1.00;1.00;;;;;21.25;44.37;98247.40;111464;1267;19783;-30
2023/12/23 06:15:03;;;;;;;;;2.00;1.00;;;;;21.25;44.42;98245.30;111562;1254;19573;-30
2023/12/23 06:17:31;;;;;;;;;2.00;2.00;;;;;21.25;44.21;98252.81;111458;1252;21290;-30
2023/12/23 06:19:58;;;;;;;;;1.50;1.50;;;;;21.25;44.31;98253.83;111573;1252;21023;-30
2023/12/23 06:22:25;;;;;;;;;3.00;3.00;;;;;21.26;44.31;98249.60;111527;1260;18581;-30
2023/12/23 06:24:53;;;;;;;;;1.00;1.00;;;;;21.29;44.29;98262.61;111621;1267;18751;-30
2023/12/23 06:27:20;;;;;;;;;1.00;1.00;;;;;21.27;44.12;98254.39;111567;1267;19346;-30
2023/12/23 06:29:47;;;;;;;;;2.00;2.00;;;;;21.25;44.31;98263.09;111647;1257;19752;-30
2023/12/23 06:32:15;;;;;;;;;4.00;2.00;;;;;21.24;44.31;98261.52;111533;1260;18660;-31
2023/12/23 06:34:42;;;;;;;;;1.00;1.00;;;;;21.25;44.34;98264.91;111660;1267;19388;-31
2023/12/23 06:37:09;;;;;;;;;1.00;1.00;;;;;21.27;44.12;98271.02;111447;1267;20922;-30
2023/12/23 06:39:37;;;;;;;;;1.00;1.00;;;;;21.25;44.33;98274.77;111082;1262;19939;-30
2023/12/23 06:42:04;;;;;;;;;1.00;1.00;;;;;21.29;44.08;98268.23;111478;1260;20988;-30
2023/12/23 06:44:31;;;;;;;;;2.00;2.00;;;;;21.26;44.37;98265.48;111433;1260;19651;-31
2023/12/23 06:46:59;;;;;;;;;2.00;2.00;;;;;21.25;44.13;98275.70;111694;1267;18648;-30
2023/12/23 06:49:27;;;;;;;;;1.50;1.50;;;;;21.24;44.20;98285.11;111582;1252;20693;-30
2023/12/23 06:51:54;;;;;;;;;2.00;2.00;;;;;21.26;44.17;98283.42;111456;1260;19705;-30
2023/12/23 06:54:22;;;;;;;;;1.50;1.50;;;;;21.26;44.16;98288.27;111470;1252;20104;-30
2023/12/23 06:56:49;;;;;;;;;1.00;1.00;;;;;21.26;44.25;98285.30;111498;1252;22199;-30
2023/12/23 06:59:16;;;;;;;;;1.00;1.00;;;;;21.24;44.14;98288.59;111494;1253;20099;-30
2023/12/23 07:01:43;;;;;;;;;1.00;1.00;;;;;21.23;44.34;98289.63;111564;1252;20102;-30
2023/12/23 07:04:11;;;;;;;;;1.00;1.00;;;;;21.23;44.38;98295.23;111560;1252;20799;-30
2023/12/23 07:06:38;;;;;;;;;1.50;1.50;;;;;21.24;44.53;98296.77;111474;1260;18140;-30
2023/12/23 07:09:05;;;;;;;;;1.00;1.00;;;;;21.24;44.41;98298.36;111594;1260;20022;-30
2023/12/23 07:11:33;;;;;;;;;2.00;2.00;;;;;21.28;44.30;98303.29;111490;1260;19859;-30
2023/12/23 07:14:00;;;;;;;;;1.00;1.00;;;;;21.28;42.88;98302.12;111650;1267;18236;-31
2023/12/23 07:16:27;;;;;;;;;2.00;2.00;;;;;21.28;43.54;98300.57;111491;1253;19947;-30
2023/12/23 07:18:55;;;;;;;;;1.00;1.00;;;;;21.30;43.77;98312.30;111517;1252;22516;-30
2023/12/23 07:21:22;;;;;;;;;1.00;1.00;;;;;21.32;43.72;98309.32;111436;1253;18732;-31
2023/12/23 07:23:49;;;;;;;;;1.00;1.00;;;;;21.31;43.95;98307.27;111448;1267;21859;-31
2023/12/23 07:26:16;;;;;;;;;4.00;2.00;;;;;21.33;43.89;98311.71;111497;1260;20705;-30
2023/12/23 07:28:44;;;;;;;;;2.00;2.00;;;;;21.35;43.85;98307.88;111411;1268;18188;-30
2023/12/23 07:31:12;;;;;;;;;1.00;1.00;;;;;21.34;44.06;98324.42;111259;1268;18684;-31
2023/12/23 07:33:39;;;;;;;;;1.33;1.33;;;;;21.38;44.31;98323.02;111291;1260;20786;-30
2023/12/23 07:36:06;;;;;;;;;1.00;1.00;;;;;21.39;44.63;98324.59;111332;1262;19736;-30
2023/12/23 07:38:34;;;;;;;;;1.00;1.00;;;;;21.37;44.35;98322.13;111330;1253;20441;-30
2023/12/23 07:41:01;;;;;;;;;4.00;2.00;;;;;21.34;43.56;98323.79;111406;1268;19385;-30
2023/12/23 07:43:28;;;;;;;;;1.50;1.50;;;;;21.36;43.95;98328.92;111314;1253;18897;-30
2023/12/23 07:45:56;;;;;;;;;2.00;2.00;;;;;21.36;43.54;98334.53;111448;1268;18760;-30
2023/12/23 07:48:23;;;;;;;;;4.00;2.00;;;;;21.39;43.66;98340.63;111245;1269;22316;-30
2023/12/23 07:50:50;;;;;;;;;2.00;2.00;;;;;21.40;43.52;98338.48;111568;1254;19672;-30
2023/12/23 07:53:17;;;;;;;;;1.00;1.00;;;;;21.35;43.70;98334.58;111250;1269;18637;-30
2023/12/23 07:55:45;;;;;;;;;1.00;1.00;;;;;21.36;43.56;98332.42;111394;1268;19397;-30
2023/12/23 07:58:12;;;;;;;;;1.00;1.00;;;;;21.40;44.25;98329.63;111351;1269;18190;-29
2023/12/23 08:00:39;;;;;;;;;1.00;1.00;;;;;21.42;44.16;98324.11;111264;1260;20415;-30
2023/12/23 08:03:07;;;;;;;;;2.00;2.00;;;;;21.44;44.19;98323.55;111350;1252;20997;-30
2023/12/23 08:05:34;;;;;;;;;2.00;2.00;;;;;21.43;44.81;98323.27;111242;1269;18333;-29
2023/12/23 08:08:02;;;;;;;;;2.00;2.00;;;;;21.49;44.78;98330.42;111327;1268;20056;-30
2023/12/23 08:10:29;;;;;;;;;1.00;1.00;;;;;21.50;44.85;98333.27;111331;1253;20903;-30
2023/12/23 08:12:56;;;;;;;;;2.50;2.50;;;;;21.53;45.17;98326.35;111444;1253;19708;-30
2023/12/23 08:15:23;;;;;;;;;1.00;1.00;;;;;21.52;45.07;98333.50;111369;1253;20030;-30
2023/12/23 08:17:51;;;;;;;;;1.50;1.50;;;;;21.52;45.27;98332.87;111491;1253;20882;-30
2023/12/23 08:20:18;;;;;;;;;1.50;1.50;;;;;21.55;45.88;98331.42;111297;1253;19798;-30
2023/12/23 08:22:45;;;;;;;;;4.00;2.00;;;;;21.53;45.99;98330.55;111524;1260;20662;-31
2023/12/23 08:25:13;;;;;;;;;2.00;2.00;;;;;21.53;46.10;98337.41;111332;1269;19376;-30
2023/12/23 08:27:40;;;;;;;;;2.00;2.00;;;;;21.50;46.44;98341.34;111328;1254;19633;-30
2023/12/23 08:30:07;;;;;;;;;1.00;1.00;;;;;21.51;46.25;98344.80;111566;1254;20351;-29
2023/12/23 08:32:35;;;;;;;;;2.00;2.00;;;;;21.49;46.62;98351.67;111506;1252;21084;-30
2023/12/23 08:35:02;;;;;;;;;1.00;1.00;;;;;21.52;46.29;98347.09;111637;1267;20855;-30
2023/12/23 08:37:29;;;;;;;;;2.00;2.00;;;;;21.54;46.71;98358.67;111637;1253;20238;-30
2023/12/23 08:39:57;;;;;;;;;4.00;4.00;;;;;21.51;46.58;98364.58;111665;1267;19360;-31
2023/12/23 08:42:24;;;;;;;;;2.00;2.00;;;;;21.54;46.52;98368.13;111667;1267;18240;-31
2023/12/23 08:44:51;;;;;;;;;3.33;3.33;;;;;21.56;46.50;98354.81;111701;1267;21138;-31
2023/12/23 08:47:18;;;;;;;;;2.00;2.00;;;;;21.56;46.80;98345.01;111572;1268;20670;-31
2023/12/23 08:49:46;;;;;;;;;1.00;1.00;;;;;21.56;46.97;98339.56;111634;1253;19675;-33
2023/12/23 08:52:13;;;;;;;;;4.00;2.00;;;;;21.57;47.27;98340.98;111635;1252;18976;-31
2023/12/23 08:54:41;;;;;;;;;2.00;2.00;;;;;21.53;47.46;98337.27;111609;1267;21012;-31
2023/12/23 08:57:08;;;;;;;;;4.00;3.00;;;;;21.52;47.68;98340.98;111651;1267;18525;-31
2023/12/23 08:59:35;;;;;;;;;2.00;2.00;;;;;21.49;47.14;98337.50;111649;1260;18720;-31
2023/12/23 09:02:03;;;;;;;;;1.50;1.50;;;;;21.45;47.15;98345.73;111629;1267;19380;-31
2023/12/23 09:04:31;;;;;;;;;3.50;3.50;;;;;21.53;46.98;98347.77;111609;1253;19470;-30
2023/12/23 09:06:58;;;;;;;;;1.00;1.00;;;;;21.51;46.87;98347.61;111662;1260;20001;-31
2023/12/23 09:09:26;;;;;;;;;1.50;1.50;;;;;21.43;46.69;98349.57;111719;1252;21022;-31
2023/12/23 09:11:53;;;;;;;;;4.00;4.00;;;;;21.45;46.57;98345.06;111570;1252;18614;-32
2023/12/23 09:14:21;;;;;;;;;1.50;1.50;;;;;21.45;46.80;98339.39;111652;1252;20133;-31
2023/12/23 09:16:48;;;;;;;;;2.00;1.50;;;;;21.51;46.80;98341.46;111581;1252;20726;-31
2023/12/23 09:19:16;;;;;;;;;2.00;2.00;;;;;21.50;47.39;98346.48;111646;1252;19592;-31
2023/12/23 09:21:43;;;;;;;;;2.00;2.00;;;;;21.53;47.13;98344.50;111554;1252;20393;-31
2023/12/23 09:24:10;;;;;;;;;2.00;2.00;;;;;21.50;47.27;98337.23;111695;1263;19537;-31
2023/12/23 09:26:38;;;;;;;;;2.00;2.00;;;;;21.41;47.11;98340.55;111479;1252;19943;-31
2023/12/23 09:29:05;;;;;;;;;3.00;3.00;;;;;21.38;47.16;98339.36;111582;1253;20089;-31
2023/12/23 09:31:33;;;;;;;;;2.00;2.00;;;;;21.36;47.05;98336.17;111535;1252;20759;-31
2023/12/23 09:34:00;;;;;;;;;2.67;2.67;;;;;21.33;47.05;98339.81;111675;1263;18617;-31
2023/12/23 09:36:27;;;;;;;;;2.00;2.00;;;;;21.32;47.64;98341.70;111629;1260;20003;-31
2023/12/23 09:38:55;;;;;;;;;1.00;1.00;;;;;21.30;47.30;98335.34;111493;1260;19487;-31
2023/12/23 09:41:22;;;;;;;;;2.00;2.00;;;;;21.30;47.52;98336.01;111586;1267;20259;-31
2023/12/23 09:43:50;;;;;;;;;1.00;1.00;;;;;21.31;47.35;98334.33;111542;1267;17709;-31
2023/12/23 09:46:17;;;;;;;;;1.00;1.00;;;;;21.30;47.26;98328.00;111616;1253;19647;-31
2023/12/23 09:48:44;;;;;;;;;1.00;1.00;;;;;21.28;47.34;98321.42;111429;1252;18495;-31
2023/12/23 09:51:12;;;;;;;;;1.00;1.00;;;;;21.28;47.12;98318.94;111602;1260;20595;-31
2023/12/23 09:53:39;;;;;;;;;1.00;1.00;;;;;21.29;47.17;98315.08;111421;1253;20822;-31
2023/12/23 09:56:07;;;;;;;;;1.00;1.00;;;;;21.26;47.21;98314.81;111612;1267;18211;-31
2023/12/23 09:58:35;;;;;;;;;4.50;2.00;;;;;21.26;47.03;98315.80;111418;1253;19765;-31
2023/12/23 10:01:02;;;;;;;;;1.00;1.00;;;;;21.26;47.02;98315.64;111634;1267;20650;-31
2023/12/23 10:03:29;;;;;;;;;1.00;1.00;;;;;21.26;46.85;98319.61;111421;1260;19733;-30
2023/12/23 10:05:57;;;;;;;;;1.00;1.00;;;;;21.25;46.91;98318.12;111628;1267;19954;-31
2023/12/23 10:08:24;;;;;;;;;1.00;1.00;;;;;21.24;46.82;98317.67;111497;1252;20723;-31
2023/12/23 10:10:51;;;;;;;;;1.50;1.50;;;;;21.24;46.88;98317.96;111649;1252;20776;-31
2023/12/23 10:13:18;;;;;;;;;2.00;1.50;;;;;21.24;46.75;98317.35;111569;1252;18649;-31
2023/12/23 10:15:46;;;;;;;;;2.00;2.00;;;;;21.24;46.61;98324.69;111698;1253;20820;-31
2023/12/23 10:18:13;;;;;;;;;1.67;1.67;;;;;21.24;46.67;98319.15;111588;1253;19647;-31
2023/12/23 10:20:40;;;;;;;;;1.00;1.00;;;;;21.23;46.55;98316.17;111469;1252;21184;-31
2023/12/23 10:23:08;;;;;;;;;2.00;2.00;;;;;21.25;46.59;98319.56;111636;1252;20780;-31
2023/12/23 10:25:35;;;;;;;;;1.00;1.00;;;;;21.24;46.37;98324.30;111448;1254;19641;-31
2023/12/23 10:28:03;;;;;;;;;1.00;1.00;;;;;21.24;46.58;98325.46;111638;1267;18637;-31
2023/12/23 10:30:31;;;;;;;;;1.00;1.00;;;;;21.24;46.41;98329.88;111419;1261;20496;-31
2023/12/23 10:32:58;;;;;;;;;1.00;1.00;;;;;21.24;46.72;98323.98;111601;1252;18351;-31
2023/12/23 10:35:25;;;;;;;;;2.00;2.00;;;;;21.24;46.35;98323.98;111436;1252;19900;-31
2023/12/23 10:37:53;;;;;;;;;2.00;1.00;;;;;21.23;46.27;98321.62;111641;1260;19487;-30
2023/12/23 10:40:20;;;;;;;;;1.00;1.00;;;;;21.24;46.51;98324.44;111509;1267;18692;-31
2023/12/23 10:42:47;;;;;;;;;2.00;2.00;;;;;21.23;46.15;98328.00;111683;1252;20140;-31
2023/12/23 10:45:15;;;;;;;;;2.00;1.00;;;;;21.23;46.24;98327.67;111502;1252;22006;-31
2023/12/23 10:47:42;;;;;;;;;1.00;1.00;;;;;21.23;46.41;98326.34;111649;1261;19461;-31
2023/12/23 10:50:09;;;;;;;;;2.00;2.00;;;;;21.23;46.29;98324.39;111471;1254;20090;-30
2023/12/23 10:52:37;;;;;;;;;1.00;1.00;;;;;21.23;46.08;98325.80;111456;1267;19432;-31
2023/12/23 10:55:04;;;;;;;;;2.00;2.00;;;;;21.22;46.14;98327.17;111491;1267;18192;-31
2023/12/23 10:57:32;;;;;;;;;1.00;1.00;;;;;21.22;46.25;98329.72;111442;1252;20097;-31
2023/12/23 10:59:59;;;;;;;;;2.00;2.00;;;;;21.22;46.12;98325.70;111478;1253;21932;-31
2023/12/23 11:02:26;;;;;;;;;1.50;1.00;;;;;21.22;46.21;98329.40;111478;1268;21054;-31
2023/12/23 11:04:54;;;;;;;;;1.00;1.00;;;;;21.22;46.24;98328.70;111519;1268;18774;-31
2023/12/23 11:07:21;;;;;;;;;1.00;1.00;;;;;21.22;46.12;98332.84;111434;1252;20784;-31
2023/12/23 11:09:48;;;;;;;;;1.00;1.00;;;;;21.22;46.24;98329.79;111568;1252;19615;-31
2023/12/23 11:12:17;;;;;;;;;1.00;1.00;;;;;21.21;46.02;98332.09;111493;1267;18665;-31
2023/12/23 11:14:44;;;;;;;;;2.00;2.00;;;;;21.22;45.93;98328.16;111499;1253;20789;-31
2023/12/23 11:17:11;;;;;;;;;1.00;1.00;;;;;21.21;46.17;98338.09;111417;1253;19573;-31
2023/12/23 11:19:38;;;;;;;;;2.00;2.00;;;;;21.21;46.04;98341.95;111536;1267;21465;-31
2023/12/23 11:22:06;;;;;;;;;1.00;1.00;;;;;21.21;46.10;98340.15;111505;1252;19421;-31
2023/12/23 11:24:33;;;;;;;;;1.00;1.00;;;;;21.21;45.92;98341.15;111432;1252;19647;-31
2023/12/23 11:27:00;;;;;;;;;1.00;1.00;;;;;21.21;45.84;98347.08;111563;1267;18676;-31